createdAt,value
2018-11-22T12:15:55.942Z,56.42
2018-11-22T12:20:59.307Z,55.98
2018-11-22T12:26:02.659Z,54.97
2018-11-22T12:31:06.719Z,53.82
2018-11-22T12:36:09.398Z,55.44
2018-11-22T12:41:12.748Z,51.60
2018-11-22T12:46:16.097Z,54.35
2018-11-22T12:51:19.443Z,52.80
2018-11-22T12:56:22.852Z,54.36
2018-11-22T13:01:26.201Z,53.71
2018-11-22T13:06:30.324Z,50.09
2018-11-22T13:11:33.779Z,51.57
2018-11-22T13:16:37.127Z,51.77
2018-11-22T13:21:40.484Z,51.04
2018-11-22T13:26:44.605Z,48.11
2018-11-22T13:31:48.749Z,50.30
2018-11-22T13:36:52.088Z,50.58
2018-11-22T13:41:55.440Z,50.55
2018-11-22T13:46:59.679Z,51.40
2018-11-22T13:52:03.029Z,51.54
2018-11-22T13:57:06.383Z,49.40
2018-11-22T14:02:09.731Z,49.01
2018-11-22T14:07:13.860Z,48.95
2018-11-22T14:12:17.983Z,48.26
2018-11-22T14:17:21.334Z,46.93
2018-11-22T14:22:24.696Z,47.18
2018-11-22T14:27:28.045Z,46.29
2018-11-22T14:32:32.168Z,47.04
2018-11-22T14:37:36.288Z,47.65
2018-11-22T14:42:39.664Z,48.49
2018-11-22T14:47:43.024Z,49.34
2018-11-22T14:52:47.137Z,47.90
2018-11-22T14:57:50.492Z,48.44
2018-11-22T15:02:53.833Z,49.06
2018-11-22T15:07:57.191Z,50.98
2018-11-22T15:13:01.313Z,51.82
2018-11-22T15:18:04.657Z,53.29
2018-11-22T15:23:08.002Z,53.79
2018-11-22T15:28:11.344Z,54.14
2018-11-22T15:33:14.819Z,54.90
2018-11-22T15:38:18.168Z,55.86
2018-11-22T15:43:21.513Z,55.60
2018-11-22T15:48:24.867Z,56.33
2018-11-22T15:53:28.215Z,56.42
2018-11-22T15:58:31.576Z,56.40
2018-11-22T16:03:34.921Z,56.94
2018-11-22T16:08:38.278Z,57.39
2018-11-22T16:13:41.622Z,57.29
2018-11-22T16:18:44.974Z,57.50
2018-11-22T16:23:48.324Z,57.65
2018-11-22T16:28:51.678Z,57.66
2018-11-22T16:33:58.094Z,58.17
2018-11-22T16:39:07.604Z,59.47
2018-11-22T16:44:11.883Z,58.29
2018-11-22T16:49:15.246Z,58.54
2018-11-22T16:54:42.415Z,58.61
2018-11-22T16:59:45.784Z,58.89
2018-11-22T17:04:49.149Z,59.00
2018-11-22T17:09:52.507Z,59.34
2018-11-22T17:14:55.864Z,59.45
2018-11-22T17:19:59.242Z,60.02
2018-11-22T17:25:02.616Z,60.07
2018-11-22T17:30:11.238Z,60.22
2018-11-22T17:35:09.396Z,60.06
2018-11-22T17:40:12.745Z,60.44
2018-11-22T17:45:19.139Z,60.26
2018-11-22T17:50:23.067Z,60.43
2018-11-22T17:55:26.425Z,60.41
2018-11-22T18:00:30.704Z,61.14
2018-11-22T18:05:34.393Z,61.29
2018-11-22T18:10:38.511Z,61.14
2018-11-22T18:15:41.862Z,61.37
2018-11-22T18:20:45.204Z,61.90
2018-11-22T18:25:49.087Z,61.79
2018-11-22T18:30:51.953Z,61.79
2018-11-22T18:35:55.326Z,62.29
2018-11-22T18:40:58.678Z,61.79
2018-11-22T18:46:02.042Z,61.74
2018-11-22T18:51:05.402Z,62.29
2018-11-22T18:56:08.745Z,63.09
2018-11-22T19:01:12.100Z,62.62
2018-11-22T19:06:15.458Z,62.88
2018-11-22T19:11:18.815Z,63.30
2018-11-22T19:16:22.147Z,63.41
2018-11-22T19:21:25.512Z,63.74
2018-11-22T19:26:28.873Z,63.79
2018-11-22T19:31:32.225Z,64.27
2018-11-22T19:36:35.564Z,64.39
2018-11-22T19:41:38.905Z,64.84
2018-11-22T19:46:42.245Z,64.85
2018-11-22T19:51:45.611Z,64.53
2018-11-22T19:56:49.304Z,64.66
2018-11-22T20:01:53.749Z,64.31
2018-11-22T20:06:57.856Z,64.07
2018-11-22T20:12:01.214Z,64.22
2018-11-22T20:17:04.563Z,64.32
2018-11-22T20:22:13.221Z,65.57
2018-11-22T20:27:16.566Z,65.54
2018-11-22T20:32:38.788Z,65.23
2018-11-22T20:37:38.601Z,65.21
2018-11-22T20:42:41.959Z,65.18
2018-11-22T20:47:46.096Z,65.47
2018-11-22T20:52:49.447Z,65.30
2018-11-22T20:57:52.889Z,65.64
2018-11-22T21:02:56.245Z,66.00
2018-11-22T21:08:03.402Z,66.13
2018-11-22T21:13:06.745Z,66.26
2018-11-22T21:18:10.843Z,66.34
2018-11-22T21:23:14.201Z,66.71
2018-11-22T21:28:17.552Z,66.81
2018-11-22T21:33:20.900Z,67.04
2018-11-22T21:38:24.240Z,66.81
2018-11-22T21:43:57.616Z,67.12
2018-11-22T21:49:00.966Z,66.90
2018-11-22T21:54:04.310Z,67.29
2018-11-22T21:59:07.656Z,67.44
2018-11-22T22:04:10.999Z,67.59
2018-11-22T22:09:15.107Z,67.45
2018-11-22T22:14:24.463Z,67.45
2018-11-22T22:19:27.798Z,67.13
2018-11-22T22:24:31.897Z,67.33
2018-11-22T22:29:35.239Z,67.04
2018-11-22T22:34:39.356Z,66.71
2018-11-22T22:39:43.475Z,66.89
2018-11-22T22:44:46.826Z,66.96
2018-11-22T22:49:50.168Z,66.77
2018-11-22T22:54:53.515Z,66.78
2018-11-22T22:59:56.857Z,66.80
2018-11-22T23:05:01.010Z,66.89
2018-11-22T23:10:04.357Z,67.03
2018-11-22T23:15:07.708Z,66.86
2018-11-22T23:20:11.063Z,66.90
2018-11-22T23:25:14.398Z,66.98
